createdAt,value
2023-01-17T04:19:51.258Z,3.41
2023-01-17T04:20:53.743Z,3.31
2023-01-17T04:21:56.169Z,3.30
2023-01-17T04:22:58.889Z,3.33
2023-01-17T04:24:01.441Z,3.38
2023-01-17T04:25:04.495Z,3.42
2023-01-17T04:26:09.555Z,3.47
2023-01-17T04:27:14.275Z,3.47
2023-01-17T04:28:16.496Z,3.42
2023-01-17T04:29:18.974Z,3.42
2023-01-17T04:30:21.281Z,3.49
2023-01-17T04:31:23.519Z,3.51
2023-01-17T04:32:26.142Z,3.47
2023-01-17T04:33:28.643Z,3.49
2023-01-17T04:34:30.852Z,3.48
2023-01-17T04:35:32.983Z,3.56
2023-01-17T04:36:35.595Z,3.45
2023-01-17T04:37:38.065Z,3.56
2023-01-17T04:38:40.763Z,3.55
2023-01-17T04:39:43.292Z,3.44
2023-01-17T04:40:45.488Z,3.43
2023-01-17T04:41:47.845Z,3.36
2023-01-17T04:42:50.784Z,3.31
2023-01-17T04:43:53.282Z,3.30
2023-01-17T04:44:56.257Z,3.32
2023-01-17T04:45:58.827Z,3.34
2023-01-17T04:47:02.366Z,3.34
2023-01-17T04:48:06.594Z,3.29
2023-01-17T04:49:08.642Z,3.20
2023-01-17T04:50:11.448Z,3.27
2023-01-17T04:51:13.716Z,3.22
2023-01-17T04:52:18.293Z,3.26
2023-01-17T04:53:20.544Z,3.33
2023-01-17T04:54:23.017Z,3.32
2023-01-17T04:55:25.765Z,3.30
2023-01-17T04:56:27.871Z,3.30
2023-01-17T04:57:30.188Z,3.20
2023-01-17T04:58:32.932Z,3.16
2023-01-17T04:59:35.435Z,3.24
2023-01-17T05:00:37.646Z,3.23
2023-01-17T05:01:39.988Z,3.23
2023-01-17T05:02:42.307Z,3.28
2023-01-17T05:03:45.142Z,3.25
2023-01-17T05:04:47.740Z,3.23
2023-01-17T05:05:50.163Z,3.22
2023-01-17T05:06:52.476Z,3.23
2023-01-17T05:07:58.371Z,3.23
2023-01-17T05:09:04.317Z,3.19
2023-01-17T05:10:07.646Z,3.21
2023-01-17T05:11:09.742Z,3.21
2023-01-17T05:12:12.251Z,3.23
2023-01-17T05:13:15.191Z,3.14
2023-01-17T05:14:17.674Z,3.16
2023-01-17T05:15:20.651Z,3.22
2023-01-17T05:16:23.232Z,3.18
2023-01-17T05:17:25.366Z,3.10
2023-01-17T05:18:27.753Z,3.14
2023-01-17T05:19:30.113Z,3.19
2023-01-17T05:20:32.491Z,3.24
2023-01-17T05:21:35.081Z,3.29
2023-01-17T05:22:38.217Z,3.33
2023-01-17T05:23:42.463Z,3.33
2023-01-17T05:24:46.540Z,3.33
2023-01-17T05:25:48.635Z,3.32
2023-01-17T05:26:52.957Z,3.28
2023-01-17T05:27:56.476Z,3.34
2023-01-17T05:28:58.630Z,3.29
2023-01-17T05:30:00.778Z,3.33
2023-01-17T05:31:03.769Z,3.34
2023-01-17T05:32:06.365Z,3.39
2023-01-17T05:33:09.679Z,3.42
2023-01-17T05:34:11.765Z,3.42
2023-01-17T05:35:14.219Z,3.40
2023-01-17T05:36:18.084Z,3.45
2023-01-17T05:37:21.087Z,3.34
2023-01-17T05:38:23.272Z,3.29
2023-01-17T05:39:25.995Z,3.29
2023-01-17T05:40:31.473Z,3.24
2023-01-17T05:41:33.768Z,3.29
2023-01-17T05:42:58.489Z,3.34
2023-01-17T05:44:01.531Z,3.34
2023-01-17T05:45:05.832Z,3.41
2023-01-17T05:46:08.425Z,3.34
2023-01-17T05:47:10.436Z,3.38
2023-01-17T05:48:12.954Z,3.41
2023-01-17T05:49:16.146Z,3.43
2023-01-17T05:50:21.839Z,3.46
2023-01-17T05:51:24.374Z,3.39
2023-01-17T05:52:27.375Z,3.36
2023-01-17T05:53:29.707Z,3.40
2023-01-17T05:54:32.036Z,3.44
2023-01-17T05:55:36.047Z,3.46
2023-01-17T05:56:38.620Z,3.43
2023-01-17T05:57:40.977Z,3.39
2023-01-17T05:58:44.144Z,3.35
2023-01-17T05:59:46.894Z,3.29
2023-01-17T06:00:49.289Z,3.34
2023-01-17T06:01:53.479Z,3.31
2023-01-17T06:02:58.305Z,3.31
2023-01-17T06:04:00.482Z,3.39
2023-01-17T06:05:03.595Z,3.39
2023-01-17T06:06:06.785Z,3.38
2023-01-17T06:07:09.256Z,3.32
2023-01-17T06:08:11.617Z,3.35
2023-01-17T06:09:13.994Z,3.39
2023-01-17T06:10:18.868Z,3.35
2023-01-17T06:11:21.393Z,3.43
2023-01-17T06:12:24.055Z,3.52
2023-01-17T06:13:26.393Z,3.60
2023-01-17T06:14:28.615Z,3.55
2023-01-17T06:15:30.969Z,3.56
2023-01-17T06:16:33.329Z,3.53
2023-01-17T06:17:36.684Z,3.58
2023-01-17T06:18:38.886Z,3.54
2023-01-17T06:19:42.280Z,3.53
2023-01-17T06:20:45.515Z,3.63
2023-01-17T06:21:47.667Z,3.65
2023-01-17T06:22:49.652Z,3.58
2023-01-17T06:23:54.298Z,3.50
2023-01-17T06:24:56.534Z,3.59
2023-01-17T06:26:01.933Z,3.69
2023-01-17T06:27:04.125Z,3.62
2023-01-17T06:28:06.955Z,3.57
2023-01-17T06:29:10.960Z,3.59
2023-01-17T06:30:14.176Z,3.60
2023-01-17T06:31:16.112Z,3.57
2023-01-17T06:32:18.700Z,3.54
2023-01-17T06:33:21.137Z,3.49
2023-01-17T06:34:23.373Z,3.51
2023-01-17T06:35:25.597Z,3.60
2023-01-17T06:36:27.821Z,3.56
2023-01-17T06:37:29.882Z,3.63
2023-01-17T06:38:32.205Z,3.59
2023-01-17T06:39:34.335Z,3.59
2023-01-17T06:40:37.205Z,3.55
2023-01-17T06:41:39.370Z,3.55
2023-01-17T06:42:41.524Z,3.57
2023-01-17T06:43:43.761Z,3.48
2023-01-17T06:44:45.799Z,3.48
2023-01-17T06:45:51.146Z,3.47
2023-01-17T06:46:53.251Z,3.49
2023-01-17T06:47:55.995Z,3.53
2023-01-17T06:48:58.197Z,3.47
2023-01-17T06:50:02.000Z,3.54
2023-01-17T06:51:04.398Z,3.51
2023-01-17T06:52:06.600Z,3.61
2023-01-17T06:53:09.526Z,3.59
2023-01-17T06:54:12.577Z,3.64
2023-01-17T06:55:14.926Z,3.62
2023-01-17T06:56:17.088Z,3.57
2023-01-17T06:57:19.558Z,3.63
2023-01-17T06:58:21.779Z,3.64
2023-01-17T06:59:24.024Z,3.56
2023-01-17T07:00:27.090Z,3.54
2023-01-17T07:01:30.896Z,3.54
2023-01-17T07:02:33.160Z,3.49
2023-01-17T07:03:35.606Z,3.53
2023-01-17T07:04:37.899Z,3.50
2023-01-17T07:05:41.053Z,3.54
2023-01-17T07:06:44.336Z,3.50
2023-01-17T07:07:47.716Z,3.50
2023-01-17T07:08:51.075Z,3.57
2023-01-17T07:09:53.146Z,3.55
2023-01-17T07:11:04.093Z,3.55
2023-01-17T07:12:07.016Z,3.55
2023-01-17T07:13:09.123Z,3.51
2023-01-17T07:14:14.168Z,3.49
2023-01-17T07:15:17.156Z,3.50
2023-01-17T07:16:21.380Z,3.51
2023-01-17T07:17:24.033Z,3.49
2023-01-17T07:18:26.336Z,3.53
2023-01-17T07:19:28.657Z,3.55
2023-01-17T07:20:32.873Z,3.59
2023-01-17T07:21:34.984Z,3.53
2023-01-17T07:22:37.579Z,3.56
2023-01-17T07:23:39.926Z,3.52
2023-01-17T07:24:41.921Z,3.54
2023-01-17T07:25:43.978Z,3.46
2023-01-17T07:26:48.954Z,3.51
2023-01-17T07:27:56.538Z,3.51
2023-01-17T07:28:59.115Z,3.49
2023-01-17T07:30:01.871Z,3.54
2023-01-17T07:31:07.133Z,3.53
2023-01-17T07:32:10.766Z,3.48
2023-01-17T07:33:12.859Z,3.47
2023-01-17T07:34:15.348Z,3.49
2023-01-17T07:35:17.755Z,3.46
2023-01-17T07:36:19.972Z,3.50
2023-01-17T07:37:22.296Z,3.61
2023-01-17T07:38:24.451Z,3.70
2023-01-17T07:39:26.433Z,3.65
2023-01-17T07:40:29.091Z,3.57
2023-01-17T07:41:32.429Z,3.57
2023-01-17T07:42:36.459Z,3.46
2023-01-17T07:43:38.503Z,3.52
2023-01-17T07:44:42.723Z,3.52
2023-01-17T07:45:50.219Z,3.56
2023-01-17T07:46:54.378Z,3.62
2023-01-17T07:47:57.290Z,3.58
2023-01-17T14:10:00.356Z,3.53
2023-01-17T14:11:09.891Z,3.39
2023-01-17T14:12:21.994Z,3.38
2023-01-17T14:13:36.592Z,3.40
2023-01-17T14:14:45.222Z,3.43
2023-01-17T14:15:49.937Z,3.50
2023-01-17T14:16:53.285Z,3.51
2023-01-17T14:18:02.979Z,3.54
2023-01-17T14:19:09.971Z,3.60
2023-01-17T14:20:16.840Z,3.61
2023-01-17T14:21:22.800Z,3.66
2023-01-17T14:22:28.164Z,3.67
2023-01-17T14:23:35.124Z,3.70
2023-01-17T14:26:04.212Z,3.64
2023-01-17T14:27:19.198Z,3.55
2023-01-17T14:28:28.812Z,3.53
2023-01-17T14:29:50.538Z,3.61
2023-01-17T14:30:55.605Z,3.63
2023-01-17T14:33:09.834Z,3.61
2023-01-17T14:34:16.262Z,3.59
2023-01-17T14:35:23.173Z,3.60
2023-01-17T14:36:29.756Z,3.68
2023-01-17T14:37:44.621Z,3.73
2023-01-17T14:38:47.094Z,3.77
2023-01-17T14:39:51.665Z,3.75
2023-01-17T14:40:59.985Z,3.70
2023-01-17T14:42:02.173Z,3.67
2023-01-17T14:43:09.147Z,3.72
2023-01-17T14:44:12.088Z,3.70
2023-01-17T14:45:18.003Z,3.68
2023-01-17T14:46:26.488Z,3.68
2023-01-17T14:47:32.620Z,3.67
2023-01-17T14:48:38.339Z,3.71
2023-01-17T14:49:40.618Z,3.77
2023-01-17T14:50:44.826Z,3.78
2023-01-17T14:52:04.315Z,3.80
2023-01-17T14:53:09.975Z,3.78
2023-01-17T14:54:19.154Z,3.83
2023-01-17T14:55:23.775Z,3.89
2023-01-17T14:56:28.118Z,4.00
2023-01-17T14:57:30.657Z,4.06
2023-01-17T14:58:35.894Z,3.97
2023-01-17T14:59:38.081Z,3.96
2023-01-17T15:00:41.003Z,3.94
2023-01-17T15:01:58.162Z,3.88
2023-01-17T15:02:51.711Z,3.95
2023-01-17T15:03:55.319Z,3.90
2023-01-17T15:04:58.086Z,3.94
2023-01-17T15:06:04.944Z,3.98
2023-01-17T15:07:11.523Z,3.97
2023-01-17T15:08:16.941Z,3.95
2023-01-17T15:09:22.907Z,3.97
2023-01-17T15:10:28.863Z,3.98
2023-01-17T15:11:34.821Z,3.97
2023-01-17T15:12:38.239Z,3.98
2023-01-17T15:13:47.372Z,3.92
2023-01-17T15:14:51.208Z,3.95
2023-01-17T15:16:05.898Z,3.93
2023-01-17T15:17:21.633Z,3.91
2023-01-17T15:18:28.968Z,3.88
2023-01-17T15:19:51.819Z,3.92
2023-01-17T15:21:03.888Z,3.94
2023-01-17T15:22:06.801Z,3.92
2023-01-17T15:23:15.592Z,3.99
2023-01-17T15:24:21.589Z,3.97
2023-01-17T15:25:23.935Z,3.98
2023-01-17T15:26:29.932Z,3.97
2023-01-17T15:27:33.060Z,4.04
2023-01-17T15:28:35.933Z,4.05
2023-01-17T15:29:40.161Z,4.05
2023-01-17T15:31:03.504Z,4.03
2023-01-17T15:32:08.157Z,4.03
2023-01-17T15:33:14.066Z,3.97
2023-01-17T15:35:34.204Z,4.12
2023-01-17T15:36:36.541Z,3.98
2023-01-17T15:37:41.858Z,3.95
2023-01-17T15:39:02.399Z,3.95
2023-01-17T15:40:20.469Z,3.96
2023-01-17T15:41:25.327Z,4.00
2023-01-17T15:42:30.834Z,4.07
2023-01-17T15:43:35.150Z,4.06
2023-01-17T15:44:48.532Z,4.11
2023-01-17T15:45:57.506Z,4.11
2023-01-17T15:47:01.886Z,4.14
2023-01-17T15:48:27.502Z,4.24
2023-01-17T15:49:31.241Z,4.15
2023-01-17T15:50:37.407Z,4.28
2023-01-17T15:51:44.825Z,4.31
2023-01-17T15:52:52.481Z,4.25
2023-01-17T15:53:54.965Z,4.36
2023-01-17T15:56:32.698Z,4.38
2023-01-17T15:57:37.360Z,4.29
2023-01-17T15:58:40.063Z,4.27
2023-01-17T15:59:48.540Z,4.24
2023-01-17T16:00:52.092Z,4.23
2023-01-17T16:01:58.905Z,4.26
2023-01-17T16:03:01.413Z,4.27
2023-01-17T16:04:03.620Z,4.26
2023-01-17T16:05:29.687Z,4.30
2023-01-17T16:06:42.745Z,4.34
2023-01-17T16:07:45.069Z,4.44
2023-01-17T16:08:51.936Z,4.43
2023-01-17T16:09:57.727Z,4.54
2023-01-17T16:11:02.729Z,4.61
2023-01-17T16:12:05.199Z,4.54
2023-01-17T22:06:59.368Z,5.30
2023-01-17T22:08:11.723Z,5.18
2023-01-17T22:09:14.498Z,5.21
2023-01-17T22:10:17.124Z,5.25
2023-01-17T22:11:21.933Z,5.32
2023-01-17T22:12:24.825Z,5.38
2023-01-17T22:13:29.943Z,5.49
2023-01-17T22:14:32.306Z,5.56
2023-01-17T22:15:35.869Z,5.63
2023-01-17T22:16:38.307Z,5.73
2023-01-17T22:17:41.839Z,5.83
2023-01-17T22:18:45.538Z,5.88
2023-01-17T22:19:47.995Z,5.85
2023-01-17T22:20:50.346Z,5.96
2023-01-17T22:21:53.784Z,5.98
2023-01-17T22:22:56.275Z,6.03
2023-01-17T22:23:59.453Z,6.12
2023-01-17T22:25:01.704Z,5.94
2023-01-17T22:26:11.223Z,6.04
2023-01-17T22:27:13.760Z,6.12
2023-01-17T22:28:15.918Z,6.10
2023-01-17T22:29:18.214Z,6.23
2023-01-17T22:30:20.701Z,6.32
2023-01-17T22:31:25.781Z,6.19
2023-01-17T22:32:29.384Z,6.05
2023-01-17T22:33:31.561Z,6.12
2023-01-17T22:34:33.700Z,6.18
2023-01-17T22:35:35.732Z,6.22
2023-01-17T22:36:38.091Z,6.36
2023-01-17T22:37:40.824Z,6.45
2023-01-17T22:38:43.916Z,6.52
2023-01-17T22:39:46.392Z,6.61
2023-01-17T22:40:48.627Z,6.48
2023-01-17T22:41:50.609Z,6.36
2023-01-17T22:42:52.758Z,6.22
2023-01-17T22:43:58.537Z,6.10
2023-01-17T22:45:01.032Z,6.15
2023-01-17T22:46:05.162Z,6.12
2023-01-17T22:47:08.357Z,6.12
2023-01-17T22:48:10.832Z,5.95
2023-01-17T22:49:15.066Z,5.81
2023-01-17T22:50:17.482Z,5.80
2023-01-17T22:51:21.597Z,5.68
2023-01-17T22:52:23.867Z,5.66
2023-01-17T22:53:26.471Z,5.71
2023-01-17T22:54:28.478Z,5.66
2023-01-17T22:55:31.650Z,5.64
2023-01-17T22:56:34.023Z,5.69
2023-01-17T22:57:36.604Z,5.71
2023-01-17T22:58:41.989Z,5.64
2023-01-17T22:59:44.245Z,5.57
2023-01-17T23:00:46.871Z,5.59
2023-01-17T23:01:48.964Z,5.51
2023-01-17T23:02:52.050Z,5.57
2023-01-17T23:03:57.748Z,5.64
2023-01-17T23:05:01.230Z,5.57
2023-01-17T23:06:18.657Z,5.46
2023-01-17T23:07:22.602Z,5.49
2023-01-17T23:08:24.786Z,5.57
2023-01-17T23:09:27.195Z,5.67
2023-01-17T23:10:47.785Z,5.56
2023-01-17T23:11:53.940Z,5.46
2023-01-17T23:12:56.592Z,5.52
2023-01-17T23:13:59.105Z,5.62
2023-01-17T23:15:19.799Z,5.66
2023-01-17T23:16:40.929Z,5.63
2023-01-17T23:18:02.036Z,5.59
2023-01-17T23:19:22.700Z,5.57
2023-01-17T23:20:25.073Z,5.53
2023-01-17T23:21:29.380Z,5.49
2023-01-17T23:22:32.242Z,5.48
2023-01-17T23:23:35.359Z,5.50
2023-01-17T23:24:41.152Z,5.58
2023-01-17T23:25:43.232Z,5.59
2023-01-17T23:26:47.355Z,5.59
2023-01-17T23:28:09.471Z,5.53
2023-01-17T23:29:11.724Z,5.52
2023-01-17T23:30:18.058Z,5.52
2023-01-17T23:31:20.366Z,5.45
2023-01-17T23:32:23.122Z,5.45
2023-01-17T23:33:25.582Z,5.46
2023-01-17T23:34:27.592Z,5.55
2023-01-17T23:35:31.955Z,5.54
2023-01-17T23:36:34.098Z,5.53
2023-01-17T23:37:55.536Z,5.58
2023-01-17T23:38:57.899Z,5.56
2023-01-17T23:40:00.040Z,5.63
2023-01-17T23:41:24.189Z,5.68
2023-01-17T23:42:44.733Z,5.72
2023-01-17T23:43:52.961Z,5.65
2023-01-17T23:44:55.222Z,5.62
2023-01-17T23:45:57.450Z,5.69
